Time;durP1;ratioP1;P1;durP2;ratioP2;P2;SDS_P1;SDS_P2;PMS_P1;PMS_P2;Temp;Humidity;BMP_temperature;BMP_pressure;BME280_temperature;BME280_humidity;BME280_pressure;Samples;Min_cycle;Max_cycle;Signal;HPM_P1;HPM_P2
2023/07/03 00:00:17;;;;;;;;;;;;;;;;;;5050033;28;2271;-56
2023/07/03 00:02:52;;;;;;;;;;;;;;;;;;5049685;28;2300;-56
2023/07/03 00:05:20;;;;;;;;;;;;;;;;;;5049751;28;2226;-57
2023/07/03 00:07:47;;;;;;;;;;;;;;;;;;5051095;28;2099;-55
2023/07/03 00:10:15;;;;;;;;;;;;;;;;;;5050482;28;2377;-58
2023/07/03 00:12:43;;;;;;;;;;;;;;;;;;5050284;28;2482;-55
2023/07/03 00:15:10;;;;;;;;;;;;;;;;;;5050564;28;2097;-56
2023/07/03 00:17:38;;;;;;;;;;;;;;;;;;5050747;28;1861;-55
2023/07/03 00:20:06;;;;;;;;;;;;;;;;;;5047660;28;1992;-56
2023/07/03 00:22:35;;;;;;;;;;;;;;;;;;5050592;28;1796;-56
2023/07/03 00:25:03;;;;;;;;;;;;;;;;;;5050402;28;1993;-47
2023/07/03 00:27:30;;;;;;;;;;;;;;;;;;5050213;28;1837;-55
2023/07/03 00:29:57;;;;;;;;;;;;;;;;;;5050746;28;1889;-54
2023/07/03 00:32:27;;;;;;;;;;;;;;;;;;5050258;28;1856;-57
2023/07/03 00:34:56;;;;;;;;;;;;;;;;;;5053623;28;2177;-56
2023/07/03 00:37:24;;;;;;;;;;;;;;;;;;5050331;28;2028;-56
2023/07/03 00:39:52;;;;;;;;;;;;;;;;;;5048862;28;2104;-54
2023/07/03 00:42:21;;;;;;;;;;;;;;;;;;5049748;28;2118;-55
2023/07/03 00:44:49;;;;;;;;;;;;;;;;;;5049006;28;2194;-54
2023/07/03 00:47:16;;;;;;;;;;;;;;;;;;5049728;28;1987;-56
2023/07/03 00:49:46;;;;;;;;;;;;;;;;;;5048676;28;2071;-55
2023/07/03 00:52:13;;;;;;;;;;;;;;;;;;5049893;28;1861;-54
2023/07/03 00:54:41;;;;;;;;;;;;;;;;;;5048331;28;2091;-56
2023/07/03 00:57:11;;;;;;;;;;;;;;;;;;5049626;28;1815;-54
2023/07/03 00:59:38;;;;;;;;;;;;;;;;;;5048330;28;2125;-56
2023/07/03 01:02:11;;;;;;;;;;;;;;;;;;5048040;28;2154;-56
2023/07/03 01:04:46;;;;;;;;;;;;;;;;;;5049469;28;2150;-55
2023/07/03 01:07:15;;;;;;;;;;;;;;;;;;5048522;28;2173;-56
2023/07/03 01:09:53;;;;;;;;;;;;;;;;;;5048472;28;2081;-54
2023/07/03 01:12:24;;;;;;;;;;;;;;;;;;5060583;28;2220;-56
2023/07/03 01:14:53;;;;;;;;;;;;;;;;;;5049802;28;2094;-57
2023/07/03 01:17:22;;;;;;;;;;;;;;;;;;5049489;28;2443;-56
2023/07/03 01:19:50;;;;;;;;;;;;;;;;;;5049312;28;1986;-57
2023/07/03 01:22:23;;;;;;;;;;;;;;;;;;5048936;28;2452;-57
2023/07/03 01:24:52;;;;;;;;;;;;;;;;;;5049193;28;2141;-56
2023/07/03 01:27:22;;;;;;;;;;;;;;;;;;5043765;28;2331;-57
2023/07/03 01:29:53;;;;;;;;;;;;;;;;;;5048949;28;2048;-56
2023/07/03 01:32:21;;;;;;;;;;;;;;;;;;5048901;28;2251;-55
2023/07/03 01:34:53;;;;;;;;;;;;;;;;;;5047404;28;2248;-56
2023/07/03 01:37:23;;;;;;;;;;;;;;;;;;5048051;28;2007;-57
2023/07/03 01:39:51;;;;;;;;;;;;;;;;;;5049092;28;2233;-57
2023/07/03 01:42:20;;;;;;;;;;;;;;;;;;5048198;28;2006;-54
2023/07/03 01:44:48;;;;;;;;;;;;;;;;;;5046102;28;2594;-55
2023/07/03 01:47:15;;;;;;;;;;;;;;;;;;5050575;28;2217;-57
2023/07/03 01:49:44;;;;;;;;;;;;;;;;;;5046516;28;1837;-55
2023/07/03 01:52:18;;;;;;;;;;;;;;;;;;5048134;28;2421;-57
2023/07/03 01:55:03;;;;;;;;;;;;;;;;;;5046503;28;2383;-56
2023/07/03 01:57:52;;;;;;;;;;;;;;;;;;5045961;28;1921;-57
2023/07/03 02:00:27;;;;;;;;;;;;;;;;;;5047804;28;2010;-55
2023/07/03 02:02:56;;;;;;;;;;;;;;;;;;5046655;28;1939;-56
2023/07/03 02:05:26;;;;;;;;;;;;;;;;;;5046253;28;2197;-56
2023/07/03 02:07:56;;;;;;;;;;;;;;;;;;5047932;28;2226;-56
2023/07/03 02:10:24;;;;;;;;;;;;;;;;;;5045790;28;2263;-54
2023/07/03 02:12:52;;;;;;;;;;;;;;;;;;5046449;28;2227;-56
2023/07/03 02:15:22;;;;;;;;;;;;;;;;;;5047663;28;1778;-56
2023/07/03 02:17:53;;;;;;;;;;;;;;;;;;5048057;28;1927;-56
2023/07/03 02:20:23;;;;;;;;;;;;;;;;;;5045735;28;1962;-56
2023/07/03 02:22:50;;;;;;;;;;;;;;;;;;5047982;28;2353;-56
2023/07/03 02:25:17;;;;;;;;;;;;;;;;;;5048089;28;1977;-55
2023/07/03 02:27:45;;;;;;;;;;;;;;;;;;5045946;28;1809;-55
2023/07/03 02:30:12;;;;;;;;;;;;;;;;;;5047655;28;2155;-57
2023/07/03 02:32:40;;;;;;;;;;;;;;;;;;5046324;28;2422;-57
2023/07/03 02:35:09;;;;;;;;;;;;;;;;;;5047198;28;1993;-56
2023/07/03 02:37:37;;;;;;;;;;;;;;;;;;5051499;28;2095;-54
2023/07/03 02:40:08;;;;;;;;;;;;;;;;;;5047367;28;2048;-54
2023/07/03 02:42:36;;;;;;;;;;;;;;;;;;5047394;28;1906;-56
2023/07/03 02:45:05;;;;;;;;;;;;;;;;;;5044829;28;2163;-54
2023/07/03 02:47:34;;;;;;;;;;;;;;;;;;5046397;28;2102;-57
2023/07/03 02:50:03;;;;;;;;;;;;;;;;;;5045370;28;2002;-57
2023/07/03 02:52:30;;;;;;;;;;;;;;;;;;5046311;28;2054;-51
2023/07/03 02:54:59;;;;;;;;;;;;;;;;;;5047909;28;2091;-57
2023/07/03 02:57:27;;;;;;;;;;;;;;;;;;5045931;28;1980;-57
2023/07/03 02:59:54;;;;;;;;;;;;;;;;;;5045849;28;2073;-54
2023/07/03 03:02:22;;;;;;;;;;;;;;;;;;5046275;28;2324;-58
2023/07/03 03:04:49;;;;;;;;;;;;;;;;;;5047019;28;1833;-55
2023/07/03 03:07:18;;;;;;;;;;;;;;;;;;5045008;28;2150;-56
2023/07/03 03:09:45;;;;;;;;;;;;;;;;;;5047652;28;1991;-56
2023/07/03 03:12:15;;;;;;;;;;;;;;;;;;5045130;28;1915;-56
2023/07/03 03:14:44;;;;;;;;;;;;;;;;;;5044894;28;2387;-57
2023/07/03 03:17:12;;;;;;;;;;;;;;;;;;5045897;28;1873;-55
2023/07/03 03:19:39;;;;;;;;;;;;;;;;;;5046499;28;2091;-57
2023/07/03 03:22:08;;;;;;;;;;;;;;;;;;5048953;28;1834;-56
2023/07/03 03:24:36;;;;;;;;;;;;;;;;;;5049470;28;2042;-56
2023/07/03 03:27:06;;;;;;;;;;;;;;;;;;5049536;28;2081;-57
2023/07/03 03:29:35;;;;;;;;;;;;;;;;;;5049500;28;2037;-55
2023/07/03 03:32:03;;;;;;;;;;;;;;;;;;5049443;28;2352;-54
2023/07/03 03:34:34;;;;;;;;;;;;;;;;;;5048162;28;1890;-57
2023/07/03 03:37:02;;;;;;;;;;;;;;;;;;5050795;28;2321;-56
2023/07/03 03:39:30;;;;;;;;;;;;;;;;;;5049884;28;1981;-52
2023/07/03 03:41:58;;;;;;;;;;;;;;;;;;5049316;28;2178;-56
2023/07/03 03:44:25;;;;;;;;;;;;;;;;;;5047959;28;1923;-54
2023/07/03 03:46:53;;;;;;;;;;;;;;;;;;5049417;28;2118;-53
2023/07/03 03:49:21;;;;;;;;;;;;;;;;;;5050010;28;2249;-55
2023/07/03 03:51:49;;;;;;;;;;;;;;;;;;5049268;28;2224;-58
2023/07/03 03:54:16;;;;;;;;;;;;;;;;;;5048901;28;1855;-56
2023/07/03 03:56:44;;;;;;;;;;;;;;;;;;5031072;28;1969;-55
2023/07/03 03:59:11;;;;;;;;;;;;;;;;;;5049138;28;2162;-56
2023/07/03 04:01:38;;;;;;;;;;;;;;;;;;5050204;28;2050;-54
2023/07/03 04:04:05;;;;;;;;;;;;;;;;;;5049786;28;1951;-55
2023/07/03 04:06:35;;;;;;;;;;;;;;;;;;5050550;28;1748;-57
2023/07/03 04:09:02;;;;;;;;;;;;;;;;;;5050511;28;2269;-56
2023/07/03 04:11:30;;;;;;;;;;;;;;;;;;5053902;28;1784;-55
2023/07/03 04:13:57;;;;;;;;;;;;;;;;;;5048808;28;2085;-57
2023/07/03 04:16:25;;;;;;;;;;;;;;;;;;5050057;28;2155;-56
2023/07/03 04:18:53;;;;;;;;;;;;;;;;;;5049528;28;1918;-55
2023/07/03 04:21:21;;;;;;;;;;;;;;;;;;5049838;28;2202;-54
2023/07/03 04:23:48;;;;;;;;;;;;;;;;;;5049767;28;2013;-56
2023/07/03 04:26:15;;;;;;;;;;;;;;;;;;5048632;28;1913;-56
2023/07/03 04:28:43;;;;;;;;;;;;;;;;;;5049362;28;2052;-54
2023/07/03 04:31:10;;;;;;;;;;;;;;;;;;5049368;28;2065;-54
2023/07/03 04:33:37;;;;;;;;;;;;;;;;;;5048121;28;1949;-56
2023/07/03 04:36:05;;;;;;;;;;;;;;;;;;5049515;28;2273;-55
2023/07/03 04:38:33;;;;;;;;;;;;;;;;;;5049845;28;2068;-56
2023/07/03 04:41:00;;;;;;;;;;;;;;;;;;5049485;28;2257;-56
2023/07/03 04:43:29;;;;;;;;;;;;;;;;;;5049300;28;2146;-51
2023/07/03 04:46:03;;;;;;;;;;;;;;;;;;5049051;28;1964;-57
2023/07/03 04:48:31;;;;;;;;;;;;;;;;;;5047831;28;2045;-55
2023/07/03 04:50:58;;;;;;;;;;;;;;;;;;5049053;28;1963;-55
2023/07/03 04:53:26;;;;;;;;;;;;;;;;;;5049504;28;1885;-55
2023/07/03 04:55:53;;;;;;;;;;;;;;;;;;5048741;28;1923;-56
2023/07/03 04:58:21;;;;;;;;;;;;;;;;;;5049043;28;2302;-55
2023/07/03 05:00:48;;;;;;;;;;;;;;;;;;5049356;28;2045;-56
2023/07/03 05:03:16;;;;;;;;;;;;;;;;;;5048349;28;1835;-53
2023/07/03 05:05:43;;;;;;;;;;;;;;;;;;5049126;28;1953;-56
2023/07/03 05:08:11;;;;;;;;;;;;;;;;;;5049021;28;2430;-56
2023/07/03 05:10:38;;;;;;;;;;;;;;;;;;5048545;28;2269;-57
2023/07/03 05:13:05;;;;;;;;;;;;;;;;;;5048782;28;2416;-57
2023/07/03 05:15:33;;;;;;;;;;;;;;;;;;5049610;28;2185;-49
2023/07/03 05:18:00;;;;;;;;;;;;;;;;;;5048298;28;1830;-57
2023/07/03 05:20:29;;;;;;;;;;;;;;;;;;5048756;28;2197;-56
2023/07/03 05:22:57;;;;;;;;;;;;;;;;;;5049047;28;2051;-56
2023/07/03 05:25:24;;;;;;;;;;;;;;;;;;5048058;28;2259;-56
2023/07/03 05:27:51;;;;;;;;;;;;;;;;;;5048953;28;2250;-54
2023/07/03 05:30:18;;;;;;;;;;;;;;;;;;5048157;28;2034;-56
2023/07/03 05:32:46;;;;;;;;;;;;;;;;;;5047770;28;1902;-54
2023/07/03 05:35:13;;;;;;;;;;;;;;;;;;5047315;28;2082;-56
2023/07/03 05:37:40;;;;;;;;;;;;;;;;;;5048328;28;1866;-56
2023/07/03 05:40:08;;;;;;;;;;;;;;;;;;5046463;28;2241;-54
2023/07/03 05:42:36;;;;;;;;;;;;;;;;;;5048419;28;1811;-56
2023/07/03 05:45:04;;;;;;;;;;;;;;;;;;5047809;28;1875;-46
2023/07/03 05:47:32;;;;;;;;;;;;;;;;;;5048459;28;1951;-51
2023/07/03 05:49:59;;;;;;;;;;;;;;;;;;5048193;28;1964;-56
2023/07/03 05:52:27;;;;;;;;;;;;;;;;;;5047083;28;1930;-55
2023/07/03 05:54:54;;;;;;;;;;;;;;;;;;5047987;28;2059;-56
2023/07/03 05:57:21;;;;;;;;;;;;;;;;;;5047443;28;1976;-55
2023/07/03 05:59:50;;;;;;;;;;;;;;;;;;5048420;28;2189;-52
2023/07/03 06:02:17;;;;;;;;;;;;;;;;;;5047219;28;2171;-56
2023/07/03 06:04:45;;;;;;;;;;;;;;;;;;5047978;28;1971;-55
2023/07/03 06:07:12;;;;;;;;;;;;;;;;;;5048140;28;1906;-43
2023/07/03 06:09:41;;;;;;;;;;;;;;;;;;5047418;28;2083;-55
2023/07/03 06:12:09;;;;;;;;;;;;;;;;;;5047895;28;1932;-55
2023/07/03 06:14:36;;;;;;;;;;;;;;;;;;5048135;28;1829;-44
2023/07/03 06:17:03;;;;;;;;;;;;;;;;;;5047552;28;2061;-49
2023/07/03 06:19:30;;;;;;;;;;;;;;;;;;5048252;28;2174;-44
2023/07/03 06:21:57;;;;;;;;;;;;;;;;;;5047487;28;2197;-44
2023/07/03 06:24:25;;;;;;;;;;;;;;;;;;5047421;28;2064;-45
2023/07/03 06:26:52;;;;;;;;;;;;;;;;;;5047932;28;1970;-53
2023/07/03 06:29:19;;;;;;;;;;;;;;;;;;5047748;28;2008;-57
2023/07/03 06:31:47;;;;;;;;;;;;;;;;;;5047066;28;1857;-44
2023/07/03 06:34:14;;;;;;;;;;;;;;;;;;5047214;28;2185;-43
2023/07/03 06:36:42;;;;;;;;;;;;;;;;;;5047643;28;2078;-45
2023/07/03 06:39:09;;;;;;;;;;;;;;;;;;5046949;28;2273;-45
2023/07/03 06:41:39;;;;;;;;;;;;;;;;;;5047744;28;2023;-50
2023/07/03 06:44:14;;;;;;;;;;;;;;;;;;5047150;28;2194;-54
2023/07/03 06:46:47;;;;;;;;;;;;;;;;;;5046204;28;1955;-44
2023/07/03 06:49:14;;;;;;;;;;;;;;;;;;5047104;28;2048;-54
2023/07/03 06:51:41;;;;;;;;;;;;;;;;;;5046153;28;2144;-45
2023/07/03 06:54:08;;;;;;;;;;;;;;;;;;5047081;28;2315;-45
2023/07/03 06:56:35;;;;;;;;;;;;;;;;;;5048276;28;2022;-56
2023/07/03 06:59:04;;;;;;;;;;;;;;;;;;5051385;28;2176;-43
2023/07/03 07:01:31;;;;;;;;;;;;;;;;;;5051120;28;2140;-45
2023/07/03 07:03:58;;;;;;;;;;;;;;;;;;5051467;28;1950;-44
2023/07/03 07:06:30;;;;;;;;;;;;;;;;;;5050347;28;2083;-44
2023/07/03 07:08:58;;;;;;;;;;;;;;;;;;5050821;28;2370;-55
2023/07/03 07:11:31;;;;;;;;;;;;;;;;;;5051190;28;2161;-56
2023/07/03 07:14:03;;;;;;;;;;;;;;;;;;5051205;28;1897;-50
2023/07/03 07:16:34;;;;;;;;;;;;;;;;;;5050964;28;2008;-45
2023/07/03 07:19:03;;;;;;;;;;;;;;;;;;5051284;28;1938;-45
2023/07/03 07:21:31;;;;;;;;;;;;;;;;;;5050545;28;2099;-45
2023/07/03 07:24:00;;;;;;;;;;;;;;;;;;5051050;28;2236;-49
2023/07/03 07:26:30;;;;;;;;;;;;;;;;;;5050483;28;1936;-44
2023/07/03 07:29:00;;;;;;;;;;;;;;;;;;5050452;28;1993;-44
2023/07/03 07:31:28;;;;;;;;;;;;;;;;;;5050264;28;1996;-45
2023/07/03 07:33:55;;;;;;;;;;;;;;;;;;5050260;28;2027;-56
2023/07/03 07:36:24;;;;;;;;;;;;;;;;;;5050596;28;2155;-45
2023/07/03 07:38:53;;;;;;;;;;;;;;;;;;5054912;28;2226;-44
2023/07/03 07:41:24;;;;;;;;;;;;;;;;;;5049355;28;1902;-56
2023/07/03 07:43:53;;;;;;;;;;;;;;;;;;5050042;28;1936;-50
2023/07/03 07:46:20;;;;;;;;;;;;;;;;;;5050397;28;1904;-45
2023/07/03 07:48:47;;;;;;;;;;;;;;;;;;5050789;28;2202;-48
2023/07/03 07:51:15;;;;;;;;;;;;;;;;;;5048384;28;2082;-54
2023/07/03 07:53:42;;;;;;;;;;;;;;;;;;5050564;28;1857;-49
2023/07/03 07:56:10;;;;;;;;;;;;;;;;;;5050139;28;1756;-46
2023/07/03 07:58:38;;;;;;;;;;;;;;;;;;5049955;28;2127;-49
2023/07/03 08:01:05;;;;;;;;;;;;;;;;;;5050343;28;1946;-45
2023/07/03 08:03:33;;;;;;;;;;;;;;;;;;5050563;28;2024;-45
2023/07/03 08:06:02;;;;;;;;;;;;;;;;;;5048636;28;1795;-45
2023/07/03 08:08:31;;;;;;;;;;;;;;;;;;5049954;28;2020;-44
2023/07/03 08:11:02;;;;;;;;;;;;;;;;;;5050080;28;2220;-56
2023/07/03 08:13:30;;;;;;;;;;;;;;;;;;5049262;28;1858;-45
2023/07/03 08:15:57;;;;;;;;;;;;;;;;;;5049665;28;2179;-56
2023/07/03 08:18:25;;;;;;;;;;;;;;;;;;5049800;28;1893;-45
2023/07/03 08:20:53;;;;;;;;;;;;;;;;;;5048950;28;1934;-56
2023/07/03 08:23:20;;;;;;;;;;;;;;;;;;5049707;28;2093;-48
2023/07/03 08:25:50;;;;;;;;;;;;;;;;;;5049983;28;1873;-47
2023/07/03 08:28:18;;;;;;;;;;;;;;;;;;5049172;28;2064;-50
2023/07/03 08:30:46;;;;;;;;;;;;;;;;;;5049921;28;2013;-56
2023/07/03 08:33:14;;;;;;;;;;;;;;;;;;5049423;28;1955;-50
2023/07/03 08:35:41;;;;;;;;;;;;;;;;;;5048133;28;2375;-46
2023/07/03 08:38:11;;;;;;;;;;;;;;;;;;5048853;28;1890;-45
2023/07/03 08:40:38;;;;;;;;;;;;;;;;;;5049974;28;2228;-46
2023/07/03 08:43:09;;;;;;;;;;;;;;;;;;5048846;28;2212;-44
2023/07/03 08:45:48;;;;;;;;;;;;;;;;;;5048692;28;2149;-56
2023/07/03 08:48:23;;;;;;;;;;;;;;;;;;5047660;28;1848;-47
2023/07/03 08:50:55;;;;;;;;;;;;;;;;;;5049168;28;1903;-52
2023/07/03 08:53:25;;;;;;;;;;;;;;;;;;5049248;28;2081;-45
2023/07/03 08:55:59;;;;;;;;;;;;;;;;;;5049507;28;1991;-52
2023/07/03 08:58:29;;;;;;;;;;;;;;;;;;5048634;28;1872;-45
2023/07/03 09:00:56;;;;;;;;;;;;;;;;;;5049209;28;1988;-54
2023/07/03 09:03:34;;;;;;;;;;;;;;;;;;5048360;28;2047;-49
2023/07/03 09:06:20;;;;;;;;;;;;;;;;;;5046582;28;1924;-57
2023/07/03 09:08:48;;;;;;;;;;;;;;;;;;5048854;28;2408;-56
2023/07/03 09:11:16;;;;;;;;;;;;;;;;;;5048654;28;2076;-55
2023/07/03 09:13:46;;;;;;;;;;;;;;;;;;5048530;28;2084;-51
2023/07/03 09:16:22;;;;;;;;;;;;;;;;;;5048955;28;1998;-55
2023/07/03 09:18:53;;;;;;;;;;;;;;;;;;5048323;28;2047;-47
2023/07/03 09:21:23;;;;;;;;;;;;;;;;;;5048031;28;1993;-50
2023/07/03 09:24:14;;;;;;;;;;;;;;;;;;5048339;28;1944;-48
2023/07/03 09:26:50;;;;;;;;;;;;;;;;;;5048826;28;2049;-55
2023/07/03 09:29:17;;;;;;;;;;;;;;;;;;5048067;28;2136;-50
2023/07/03 09:31:45;;;;;;;;;;;;;;;;;;5048936;28;2196;-48
2023/07/03 09:34:12;;;;;;;;;;;;;;;;;;5047793;28;1923;-52
2023/07/03 09:36:41;;;;;;;;;;;;;;;;;;5048184;28;2258;-54
2023/07/03 09:39:10;;;;;;;;;;;;;;;;;;5048286;28;2256;-52
2023/07/03 09:41:38;;;;;;;;;;;;;;;;;;5047762;28;2151;-57
2023/07/03 09:44:07;;;;;;;;;;;;;;;;;;5047870;28;2003;-48
2023/07/03 09:46:34;;;;;;;;;;;;;;;;;;5048210;28;1985;-48
2023/07/03 09:49:03;;;;;;;;;;;;;;;;;;5048494;28;2161;-56
2023/07/03 09:51:31;;;;;;;;;;;;;;;;;;5047297;28;1807;-56
2023/07/03 09:54:04;;;;;;;;;;;;;;;;;;5048026;28;2112;-57
2023/07/03 09:56:32;;;;;;;;;;;;;;;;;;5048751;28;2097;-49
2023/07/03 09:59:03;;;;;;;;;;;;;;;;;;5046532;28;2098;-56
2023/07/03 10:01:37;;;;;;;;;;;;;;;;;;5048558;28;2261;-48
2023/07/03 10:04:08;;;;;;;;;;;;;;;;;;5047762;28;1903;-52
2023/07/03 10:06:39;;;;;;;;;;;;;;;;;;5047992;28;1970;-51
2023/07/03 10:09:16;;;;;;;;;;;;;;;;;;5048074;28;2185;-55
2023/07/03 10:11:58;;;;;;;;;;;;;;;;;;5047073;28;2230;-57
2023/07/03 10:14:27;;;;;;;;;;;;;;;;;;5045521;28;2216;-45
2023/07/03 10:16:55;;;;;;;;;;;;;;;;;;5047238;28;2087;-51
2023/07/03 10:19:22;;;;;;;;;;;;;;;;;;5047545;28;1863;-53
2023/07/03 10:21:50;;;;;;;;;;;;;;;;;;5047465;28;1983;-55
2023/07/03 10:24:20;;;;;;;;;;;;;;;;;;5047203;28;2018;-48
2023/07/03 10:26:50;;;;;;;;;;;;;;;;;;5047583;28;1973;-47
2023/07/03 10:29:21;;;;;;;;;;;;;;;;;;5047676;28;2370;-47
2023/07/03 10:31:49;;;;;;;;;;;;;;;;;;5052633;28;1973;-50
2023/07/03 10:34:19;;;;;;;;;;;;;;;;;;5056417;28;1916;-47
2023/07/03 10:36:55;;;;;;;;;;;;;;;;;;5052718;28;1893;-58
2023/07/03 10:39:27;;;;;;;;;;;;;;;;;;5053549;28;1789;-55
2023/07/03 10:41:57;;;;;;;;;;;;;;;;;;5054237;28;1975;-47
2023/07/03 10:44:27;;;;;;;;;;;;;;;;;;5053241;28;1772;-51
2023/07/03 10:46:59;;;;;;;;;;;;;;;;;;5054086;28;2209;-52
2023/07/03 10:49:30;;;;;;;;;;;;;;;;;;5054160;28;2155;-56
2023/07/03 10:52:07;;;;;;;;;;;;;;;;;;5054176;28;2188;-57
2023/07/03 10:54:38;;;;;;;;;;;;;;;;;;5054289;28;2181;-55
2023/07/03 10:57:07;;;;;;;;;;;;;;;;;;5053229;28;1963;-47
2023/07/03 10:59:38;;;;;;;;;;;;;;;;;;5054457;28;1864;-53
2023/07/03 11:02:06;;;;;;;;;;;;;;;;;;5053583;28;2172;-48
2023/07/03 11:04:53;;;;;;;;;;;;;;;;;;5054022;28;2049;-50
2023/07/03 11:07:27;;;;;;;;;;;;;;;;;;5053553;28;2067;-50
2023/07/03 11:10:13;;;;;;;;;;;;;;;;;;5053885;28;1992;-48
2023/07/03 11:12:47;;;;;;;;;;;;;;;;;;5053629;28;1839;-47
2023/07/03 11:15:22;;;;;;;;;;;;;;;;;;5053944;28;1899;-49
2023/07/03 11:17:56;;;;;;;;;;;;;;;;;;5053960;28;1962;-53
2023/07/03 11:20:36;;;;;;;;;;;;;;;;;;5052888;28;1895;-52
2023/07/03 11:23:07;;;;;;;;;;;;;;;;;;5053668;28;2176;-47
2023/07/03 11:25:45;;;;;;;;;;;;;;;;;;5054170;28;2021;-51
2023/07/03 11:28:26;;;;;;;;;;;;;;;;;;5053418;28;1928;-54
2023/07/03 11:30:54;;;;;;;;;;;;;;;;;;5053593;28;1876;-51
2023/07/03 11:33:22;;;;;;;;;;;;;;;;;;5052445;28;2092;-50
2023/07/03 11:35:57;;;;;;;;;;;;;;;;;;5054714;28;2120;-53
2023/07/03 11:38:26;;;;;;;;;;;;;;;;;;5053944;28;2268;-51
2023/07/03 11:40:58;;;;;;;;;;;;;;;;;;5054950;28;2213;-50
2023/07/03 11:43:28;;;;;;;;;;;;;;;;;;5051318;28;2299;-53
2023/07/03 11:45:58;;;;;;;;;;;;;;;;;;5051567;28;2244;-57
2023/07/03 11:48:38;;;;;;;;;;;;;;;;;;5049484;28;2179;-53
2023/07/03 11:51:10;;;;;;;;;;;;;;;;;;5051301;28;2089;-51
2023/07/03 11:53:46;;;;;;;;;;;;;;;;;;5068118;28;1678;-49
2023/07/03 11:56:34;;;;;;;;;;;;;;;;;;5070613;28;1949;-57
2023/07/03 11:59:05;;;;;;;;;;;;;;;;;;5069863;28;1946;-47
2023/07/03 12:01:33;;;;;;;;;;;;;;;;;;5071181;28;1974;-46
2023/07/03 12:04:02;;;;;;;;;;;;;;;;;;5070599;28;2227;-57
2023/07/03 12:06:39;;;;;;;;;;;;;;;;;;5071380;28;2057;-51
2023/07/03 12:09:21;;;;;;;;;;;;;;;;;;5070770;28;1958;-48
2023/07/03 12:12:06;;;;;;;;;;;;;;;;;;5070561;28;2276;-56
2023/07/03 12:14:40;;;;;;;;;;;;;;;;;;5070929;28;2234;-50
2023/07/03 12:17:27;;;;;;;;;;;;;;;;;;5070444;28;1998;-49
2023/07/03 12:19:56;;;;;;;;;;;;;;;;;;5070476;28;2039;-51
2023/07/03 12:22:27;;;;;;;;;;;;;;;;;;5070020;28;1914;-48
2023/07/03 12:25:14;;;;;;;;;;;;;;;;;;5069836;28;2270;-50
2023/07/03 12:27:42;;;;;;;;;;;;;;;;;;5059832;28;2048;-56
2023/07/03 12:30:10;;;;;;;;;;;;;;;;;;5070481;28;2178;-47
2023/07/03 12:32:38;;;;;;;;;;;;;;;;;;5070005;28;2080;-47
2023/07/03 12:35:09;;;;;;;;;;;;;;;;;;5070233;28;2094;-47
2023/07/03 12:37:40;;;;;;;;;;;;;;;;;;5052095;28;2227;-47
2023/07/03 12:40:08;;;;;;;;;;;;;;;;;;5049808;28;2139;-49
2023/07/03 12:42:37;;;;;;;;;;;;;;;;;;5050428;28;1995;-48
2023/07/03 12:45:24;;;;;;;;;;;;;;;;;;5050205;28;2083;-47
2023/07/03 12:48:04;;;;;;;;;;;;;;;;;;5050098;28;2086;-56
2023/07/03 12:50:32;;;;;;;;;;;;;;;;;;5068653;28;2047;-56
2023/07/03 12:53:00;;;;;;;;;;;;;;;;;;5070470;28;1770;-57
2023/07/03 12:55:31;;;;;;;;;;;;;;;;;;5065809;28;1956;-55
2023/07/03 12:57:59;;;;;;;;;;;;;;;;;;5069883;28;2015;-47
2023/07/03 13:00:31;;;;;;;;;;;;;;;;;;5069711;28;2072;-56
2023/07/03 13:03:03;;;;;;;;;;;;;;;;;;5069474;28;2125;-52
2023/07/03 13:05:35;;;;;;;;;;;;;;;;;;5070165;28;1986;-46
2023/07/03 13:08:05;;;;;;;;;;;;;;;;;;5048455;28;2147;-46
2023/07/03 13:10:33;;;;;;;;;;;;;;;;;;5049363;28;2383;-45
2023/07/03 13:13:06;;;;;;;;;;;;;;;;;;5049948;28;1926;-49
2023/07/03 13:15:43;;;;;;;;;;;;;;;;;;5049624;28;2171;-46
2023/07/03 13:18:15;;;;;;;;;;;;;;;;;;5048550;28;2418;-56
2023/07/03 13:20:55;;;;;;;;;;;;;;;;;;5049381;28;2164;-45
2023/07/03 13:23:30;;;;;;;;;;;;;;;;;;5048711;28;2081;-46
2023/07/03 13:25:59;;;;;;;;;;;;;;;;;;5049294;28;2159;-57
2023/07/03 13:28:29;;;;;;;;;;;;;;;;;;5049147;28;2170;-46
2023/07/03 13:31:06;;;;;;;;;;;;;;;;;;5049608;28;2057;-48
2023/07/03 13:33:35;;;;;;;;;;;;;;;;;;5048668;28;1923;-46
2023/07/03 13:36:23;;;;;;;;;;;;;;;;;;5050948;28;1854;-45
2023/07/03 13:39:20;;;;;;;;;;;;;;;;;;5069271;28;2021;-47
2023/07/03 13:41:48;;;;;;;;;;;;;;;;;;5056270;28;1984;-46
2023/07/03 13:44:17;;;;;;;;;;;;;;;;;;5068624;28;2064;-46
2023/07/03 13:46:45;;;;;;;;;;;;;;;;;;5068710;28;2084;-50
2023/07/03 13:49:13;;;;;;;;;;;;;;;;;;5068489;28;2064;-46
2023/07/03 13:51:40;;;;;;;;;;;;;;;;;;5069028;28;2287;-45
2023/07/03 13:54:08;;;;;;;;;;;;;;;;;;5068486;28;2132;-46
2023/07/03 13:56:39;;;;;;;;;;;;;;;;;;5068883;28;2022;-45
2023/07/03 13:59:08;;;;;;;;;;;;;;;;;;5068741;28;2001;-56
2023/07/03 14:01:37;;;;;;;;;;;;;;;;;;5052798;28;2011;-56
2023/07/03 14:04:05;;;;;;;;;;;;;;;;;;5048903;28;2340;-46
2023/07/03 14:06:33;;;;;;;;;;;;;;;;;;5048533;28;2024;-46
2023/07/03 14:09:01;;;;;;;;;;;;;;;;;;5048365;28;2174;-48
2023/07/03 14:11:28;;;;;;;;;;;;;;;;;;5048278;28;2282;-46
2023/07/03 14:13:55;;;;;;;;;;;;;;;;;;5044769;28;1810;-46
2023/07/03 14:16:24;;;;;;;;;;;;;;;;;;5046534;28;2133;-46
2023/07/03 14:18:51;;;;;;;;;;;;;;;;;;5047425;28;1888;-46
2023/07/03 14:21:20;;;;;;;;;;;;;;;;;;5046786;28;2089;-45
2023/07/03 14:23:48;;;;;;;;;;;;;;;;;;5046628;28;2062;-47
2023/07/03 14:26:16;;;;;;;;;;;;;;;;;;5046953;28;1972;-47
2023/07/03 14:28:45;;;;;;;;;;;;;;;;;;5046828;28;1919;-48
2023/07/03 14:36:13;;;;;;;;;;;;;;;;;;5041083;28;1896;-46
2023/07/03 14:38:40;;;;;;;;;;;;;;;;;;5025817;28;1940;-48
2023/07/03 14:41:08;;;;;;;;;;;;;;;;;;5047950;28;2052;-46
2023/07/03 14:43:35;;;;;;;;;;;;;;;;;;5048039;28;1934;-45
2023/07/03 14:46:03;;;;;;;;;;;;;;;;;;5047942;28;2164;-51
2023/07/03 14:48:30;;;;;;;;;;;;;;;;;;5048485;28;2197;-45
2023/07/03 14:50:58;;;;;;;;;;;;;;;;;;5048512;28;1788;-58
2023/07/03 14:53:25;;;;;;;;;;;;;;;;;;5047889;28;2083;-50
2023/07/03 14:55:54;;;;;;;;;;;;;;;;;;5048222;28;2088;-49
2023/07/03 14:58:21;;;;;;;;;;;;;;;;;;5048036;28;1637;-48
2023/07/03 15:00:48;;;;;;;;;;;;;;;;;;5047971;28;2357;-48
2023/07/03 15:03:16;;;;;;;;;;;;;;;;;;5047783;28;2284;-45
2023/07/03 15:05:46;;;;;;;;;;;;;;;;;;5048179;28;2061;-51
2023/07/03 15:08:14;;;;;;;;;;;;;;;;;;5047529;28;2060;-57
2023/07/03 15:10:41;;;;;;;;;;;;;;;;;;5047737;28;1841;-49
2023/07/03 15:13:08;;;;;;;;;;;;;;;;;;5047794;28;2060;-57
2023/07/03 15:15:36;;;;;;;;;;;;;;;;;;5047965;28;2182;-54
2023/07/03 15:18:04;;;;;;;;;;;;;;;;;;5049086;28;2292;-47
2023/07/03 15:20:31;;;;;;;;;;;;;;;;;;5052069;28;2191;-48
2023/07/03 15:22:58;;;;;;;;;;;;;;;;;;5050961;28;1975;-55
2023/07/03 15:25:27;;;;;;;;;;;;;;;;;;5051874;28;1989;-47
2023/07/03 15:27:54;;;;;;;;;;;;;;;;;;5052127;28;2062;-45
2023/07/03 15:30:22;;;;;;;;;;;;;;;;;;5050774;28;2045;-49
2023/07/03 15:32:51;;;;;;;;;;;;;;;;;;5051782;28;2063;-46
2023/07/03 15:35:20;;;;;;;;;;;;;;;;;;5030090;28;1814;-47
2023/07/03 15:37:47;;;;;;;;;;;;;;;;;;5043864;28;1914;-49
2023/07/03 15:40:15;;;;;;;;;;;;;;;;;;5051423;28;1944;-45
2023/07/03 15:42:43;;;;;;;;;;;;;;;;;;5051191;28;1972;-47
2023/07/03 15:45:11;;;;;;;;;;;;;;;;;;5050804;28;2324;-48
2023/07/03 15:47:39;;;;;;;;;;;;;;;;;;5051333;28;2096;-54
2023/07/03 15:50:07;;;;;;;;;;;;;;;;;;5050649;28;1972;-47
2023/07/03 15:52:34;;;;;;;;;;;;;;;;;;5051156;28;2116;-50
2023/07/03 15:55:01;;;;;;;;;;;;;;;;;;5051104;28;2062;-47
2023/07/03 15:57:28;;;;;;;;;;;;;;;;;;5051110;28;2254;-57
2023/07/03 15:59:55;;;;;;;;;;;;;;;;;;5051024;28;1992;-46
2023/07/03 16:02:23;;;;;;;;;;;;;;;;;;5050505;28;2299;-50
2023/07/03 16:04:50;;;;;;;;;;;;;;;;;;5049894;28;2256;-50
2023/07/03 16:07:17;;;;;;;;;;;;;;;;;;5049929;28;1820;-58
2023/07/03 16:09:45;;;;;;;;;;;;;;;;;;5050924;28;2033;-46
2023/07/03 16:12:14;;;;;;;;;;;;;;;;;;5050801;28;2098;-53
2023/07/03 16:14:41;;;;;;;;;;;;;;;;;;5050379;28;1957;-46
2023/07/03 16:17:09;;;;;;;;;;;;;;;;;;5050367;28;1968;-55
2023/07/03 16:19:36;;;;;;;;;;;;;;;;;;5050815;28;2095;-46
2023/07/03 16:22:03;;;;;;;;;;;;;;;;;;5050312;28;2275;-58
2023/07/03 16:24:30;;;;;;;;;;;;;;;;;;5050590;28;2289;-44
2023/07/03 16:26:58;;;;;;;;;;;;;;;;;;5051001;28;2043;-50
2023/07/03 16:29:25;;;;;;;;;;;;;;;;;;5048952;28;1993;-49
2023/07/03 16:31:52;;;;;;;;;;;;;;;;;;5050335;28;1825;-55
2023/07/03 16:34:20;;;;;;;;;;;;;;;;;;5050243;28;2207;-49
2023/07/03 16:36:47;;;;;;;;;;;;;;;;;;5049936;28;1998;-48
2023/07/03 16:39:14;;;;;;;;;;;;;;;;;;5050056;28;1960;-45
2023/07/03 16:41:41;;;;;;;;;;;;;;;;;;5050110;28;2323;-56
2023/07/03 16:44:08;;;;;;;;;;;;;;;;;;5049397;28;2145;-52
2023/07/03 16:46:36;;;;;;;;;;;;;;;;;;5050196;28;1954;-48
2023/07/03 16:49:05;;;;;;;;;;;;;;;;;;5050282;28;1909;-45
2023/07/03 16:51:32;;;;;;;;;;;;;;;;;;5049551;28;2312;-47
2023/07/03 16:54:00;;;;;;;;;;;;;;;;;;5050133;28;1896;-48
2023/07/03 16:56:27;;;;;;;;;;;;;;;;;;5049920;28;2138;-48
2023/07/03 16:58:58;;;;;;;;;;;;;;;;;;5049464;28;1999;-49
2023/07/03 17:01:27;;;;;;;;;;;;;;;;;;5050184;28;2196;-46
2023/07/03 17:03:57;;;;;;;;;;;;;;;;;;5049879;28;2202;-46
2023/07/03 17:06:32;;;;;;;;;;;;;;;;;;5049738;28;2129;-48
2023/07/03 17:09:00;;;;;;;;;;;;;;;;;;5050014;28;2034;-48
2023/07/03 17:11:28;;;;;;;;;;;;;;;;;;5049672;28;2172;-56
2023/07/03 17:13:56;;;;;;;;;;;;;;;;;;5049438;28;1891;-47
2023/07/03 17:16:23;;;;;;;;;;;;;;;;;;5049480;28;1946;-57
2023/07/03 17:18:51;;;;;;;;;;;;;;;;;;5049777;28;2111;-57
2023/07/03 17:21:18;;;;;;;;;;;;;;;;;;5055743;28;2373;-46
2023/07/03 17:23:48;;;;;;;;;;;;;;;;;;5067840;28;2230;-58